Overview Statistics Trail Chart Weather Telemetry Raw packets
 

This is the latest recevied weather packets stored in our database for station/object OK2VOP-6. If no packets are shown the sender has not sent any weather packets the latest 10 day(s).

<< 1 2 3 4 >>
Time Temp. Humidity Pressure Rain* Wind** Luminosity Snow
1788724061 16.67° C 25% - 0 mm - - -
1788722854 17.22° C 24% - 0 mm - - -
1788720444 17.78° C 22% - 0 mm - - -
1788719239 18.33° C 21% - 0 mm - - -
1788718035 18.33° C 21% - 0 mm - - -
1788716830 18.89° C 19% - 0 mm - - -
1788715625 20° C 17% - 0 mm - - -
1788714420 20.56° C 15% - 0 mm - - -
1788713215 21.11° C 12% - 0 mm - - -
1788712011 22.22° C 10% - 0 mm - - -
1788710806 22.78° C 9% - 0 mm - - -
1788709603 23.89° C 7% - 0 mm - - -
1788708396 24.44° C 5% - 0 mm - - -
1788707192 24.44° C 5% - 0 mm - - -
1788705986 25° C 6% - 0 mm - - -
1788704782 25.56° C 5% - 0 mm - - -
1788703577 25.56° C 5% - 0 mm - - -
1788701167 24.44° C 6% - 0 mm - - -
1788699962 24.44° C 6% - 0 mm - - -
1788698757 24.44° C 7% - 0 mm - - -
1788697552 23.33° C 8% - 0 mm - - -
1788696348 22.78° C 10% - 0 mm - - -
1788695142 22.78° C 11% - 0 mm - - -
1788693937 22.22° C 13% - 0 mm - - -
1788692733 21.67° C 13% - 0 mm - - -

* Rain latest hour (hover to see other rain measurements)
** Current wind speed in m/s (hover to see current wind gust speed)